Terminal Aerodrome Forecast
Issued by NWS

Home | Current Version | Previous Version | Text Only | Print | Product List | Glossary On
Versions: 1 2 3 4 5 6 7 8 9 10 11 12 13 14
854
FTUS44 KSJT 252138 AAB
TAFJCT
TAF AMD
KJCT 252138Z 2522/2618 33010KT P6SM -SHRA OVC015
     FM252300 01011KT P6SM BKN025
     FM260300 VRB03KT P6SM BKN035
     FM260600 VRB03KT P6SM SKC=

USA.gov is the U.S. government's official web portal to all federal, state and local government web resources and services.